sensor_id;sensor_type;location;lat;lon;timestamp;P1;durP1;ratioP1;P2;durP2;ratioP2
37971;SDS011;23794;48.234;8.344;2022-10-17T00:01:32;4.57;;;2.33;;
37971;SDS011;23794;48.234;8.344;2022-10-17T00:03:59;3.35;;;1.85;;
37971;SDS011;23794;48.234;8.344;2022-10-17T00:06:26;8.70;;;2.60;;
37971;SDS011;23794;48.234;8.344;2022-10-17T00:08:52;6.32;;;2.20;;
37971;SDS011;23794;48.234;8.344;2022-10-17T00:11:20;6.45;;;2.75;;
37971;SDS011;23794;48.234;8.344;2022-10-17T00:13:48;5.25;;;2.20;;
37971;SDS011;23794;48.234;8.344;2022-10-17T00:16:29;7.28;;;2.28;;
37971;SDS011;23794;48.234;8.344;2022-10-17T00:18:59;4.57;;;2.10;;
37971;SDS011;23794;48.234;8.344;2022-10-17T00:21:26;7.47;;;2.38;;
37971;SDS011;23794;48.234;8.344;2022-10-17T00:23:53;4.78;;;2.42;;
37971;SDS011;23794;48.234;8.344;2022-10-17T00:26:20;10.05;;;2.50;;
37971;SDS011;23794;48.234;8.344;2022-10-17T00:28:47;5.25;;;2.13;;
37971;SDS011;23794;48.234;8.344;2022-10-17T00:31:16;3.92;;;1.63;;
37971;SDS011;23794;48.234;8.344;2022-10-17T00:33:44;8.13;;;2.08;;
37971;SDS011;23794;48.234;8.344;2022-10-17T00:36:14;6.55;;;2.22;;
37971;SDS011;23794;48.234;8.344;2022-10-17T00:38:50;5.82;;;2.55;;
37971;SDS011;23794;48.234;8.344;2022-10-17T00:41:20;4.97;;;2.25;;
37971;SDS011;23794;48.234;8.344;2022-10-17T00:46:15;3.67;;;2.05;;
37971;SDS011;23794;48.234;8.344;2022-10-17T00:48:42;6.05;;;2.05;;
37971;SDS011;23794;48.234;8.344;2022-10-17T00:51:09;13.70;;;2.50;;
37971;SDS011;23794;48.234;8.344;2022-10-17T00:53:38;5.32;;;2.75;;
37971;SDS011;23794;48.234;8.344;2022-10-17T00:56:05;5.55;;;2.10;;
37971;SDS011;23794;48.234;8.344;2022-10-17T00:58:32;6.80;;;2.33;;
37971;SDS011;23794;48.234;8.344;2022-10-17T01:01:00;3.08;;;2.10;;
37971;SDS011;23794;48.234;8.344;2022-10-17T01:03:28;6.28;;;3.03;;
37971;SDS011;23794;48.234;8.344;2022-10-17T01:05:55;3.72;;;2.28;;
37971;SDS011;23794;48.234;8.344;2022-10-17T01:08:22;7.13;;;1.98;;
37971;SDS011;23794;48.234;8.344;2022-10-17T01:16:28;5.78;;;2.20;;
37971;SDS011;23794;48.234;8.344;2022-10-17T01:21:58;7.90;;;2.13;;
37971;SDS011;23794;48.234;8.344;2022-10-17T01:27:08;6.88;;;2.00;;
37971;SDS011;23794;48.234;8.344;2022-10-17T01:35:24;6.13;;;2.28;;
37971;SDS011;23794;48.234;8.344;2022-10-17T01:38:09;3.40;;;2.00;;
37971;SDS011;23794;48.234;8.344;2022-10-17T01:40:45;5.38;;;2.80;;
37971;SDS011;23794;48.234;8.344;2022-10-17T01:43:40;10.13;;;2.45;;
37971;SDS011;23794;48.234;8.344;2022-10-17T01:46:15;16.10;;;2.80;;
37971;SDS011;23794;48.234;8.344;2022-10-17T01:48:44;2.35;;;1.70;;
37971;SDS011;23794;48.234;8.344;2022-10-17T01:51:19;4.70;;;2.20;;
37971;SDS011;23794;48.234;8.344;2022-10-17T01:54:00;8.38;;;2.05;;
37971;SDS011;23794;48.234;8.344;2022-10-17T01:56:30;7.82;;;2.10;;
37971;SDS011;23794;48.234;8.344;2022-10-17T01:59:00;5.70;;;1.92;;
37971;SDS011;23794;48.234;8.344;2022-10-17T02:01:32;4.72;;;1.95;;
37971;SDS011;23794;48.234;8.344;2022-10-17T02:04:01;5.15;;;1.70;;
37971;SDS011;23794;48.234;8.344;2022-10-17T02:06:29;5.60;;;2.40;;
37971;SDS011;23794;48.234;8.344;2022-10-17T02:09:00;7.65;;;2.90;;
37971;SDS011;23794;48.234;8.344;2022-10-17T02:11:40;6.35;;;2.42;;
37971;SDS011;23794;48.234;8.344;2022-10-17T02:19:34;7.45;;;2.10;;
37971;SDS011;23794;48.234;8.344;2022-10-17T02:30:15;3.88;;;1.92;;
37971;SDS011;23794;48.234;8.344;2022-10-17T02:35:32;3.67;;;2.47;;
37971;SDS011;23794;48.234;8.344;2022-10-17T02:40:31;4.95;;;2.40;;
37971;SDS011;23794;48.234;8.344;2022-10-17T02:42:59;4.43;;;2.03;;
37971;SDS011;23794;48.234;8.344;2022-10-17T02:45:28;4.88;;;1.88;;
37971;SDS011;23794;48.234;8.344;2022-10-17T02:48:09;4.50;;;2.17;;
37971;SDS011;23794;48.234;8.344;2022-10-17T02:50:50;3.78;;;2.22;;
37971;SDS011;23794;48.234;8.344;2022-10-17T02:53:23;8.20;;;2.40;;
37971;SDS011;23794;48.234;8.344;2022-10-17T02:55:58;3.95;;;2.47;;
37971;SDS011;23794;48.234;8.344;2022-10-17T02:58:30;4.55;;;2.15;;
37971;SDS011;23794;48.234;8.344;2022-10-17T03:00:59;3.40;;;1.92;;
37971;SDS011;23794;48.234;8.344;2022-10-17T03:03:29;4.70;;;2.40;;
37971;SDS011;23794;48.234;8.344;2022-10-17T03:06:00;3.38;;;2.20;;
37971;SDS011;23794;48.234;8.344;2022-10-17T03:08:27;4.72;;;1.90;;
37971;SDS011;23794;48.234;8.344;2022-10-17T03:10:54;2.70;;;2.10;;
37971;SDS011;23794;48.234;8.344;2022-10-17T03:13:22;5.90;;;1.70;;
37971;SDS011;23794;48.234;8.344;2022-10-17T03:15:49;4.97;;;2.33;;
37971;SDS011;23794;48.234;8.344;2022-10-17T03:18:15;3.90;;;2.20;;
37971;SDS011;23794;48.234;8.344;2022-10-17T03:20:44;11.57;;;2.53;;
37971;SDS011;23794;48.234;8.344;2022-10-17T03:23:11;7.78;;;2.70;;
37971;SDS011;23794;48.234;8.344;2022-10-17T03:25:39;6.03;;;3.13;;
37971;SDS011;23794;48.234;8.344;2022-10-17T03:28:06;4.40;;;2.42;;
37971;SDS011;23794;48.234;8.344;2022-10-17T03:30:33;8.10;;;3.17;;
37971;SDS011;23794;48.234;8.344;2022-10-17T03:33:00;4.28;;;2.33;;
37971;SDS011;23794;48.234;8.344;2022-10-17T03:35:27;3.38;;;2.25;;
37971;SDS011;23794;48.234;8.344;2022-10-17T03:37:54;5.25;;;2.80;;
37971;SDS011;23794;48.234;8.344;2022-10-17T03:40:24;5.13;;;2.40;;
37971;SDS011;23794;48.234;8.344;2022-10-17T03:42:51;5.80;;;2.60;;
37971;SDS011;23794;48.234;8.344;2022-10-17T03:45:18;4.90;;;2.03;;
37971;SDS011;23794;48.234;8.344;2022-10-17T03:47:46;4.13;;;2.67;;
37971;SDS011;23794;48.234;8.344;2022-10-17T03:50:13;7.10;;;2.70;;
37971;SDS011;23794;48.234;8.344;2022-10-17T03:52:44;6.18;;;3.00;;
37971;SDS011;23794;48.234;8.344;2022-10-17T03:55:12;8.43;;;2.95;;
37971;SDS011;23794;48.234;8.344;2022-10-17T03:57:39;5.40;;;3.00;;
37971;SDS011;23794;48.234;8.344;2022-10-17T04:00:11;6.50;;;2.80;;
37971;SDS011;23794;48.234;8.344;2022-10-17T04:02:48;5.35;;;2.72;;
37971;SDS011;23794;48.234;8.344;2022-10-17T04:05:17;6.32;;;2.65;;
37971;SDS011;23794;48.234;8.344;2022-10-17T04:07:45;5.47;;;2.63;;
37971;SDS011;23794;48.234;8.344;2022-10-17T04:10:13;9.27;;;3.40;;
37971;SDS011;23794;48.234;8.344;2022-10-17T04:12:40;6.82;;;2.28;;
37971;SDS011;23794;48.234;8.344;2022-10-17T04:15:08;5.32;;;2.80;;
37971;SDS011;23794;48.234;8.344;2022-10-17T04:17:36;8.82;;;2.20;;
37971;SDS011;23794;48.234;8.344;2022-10-17T04:20:04;7.72;;;2.67;;
37971;SDS011;23794;48.234;8.344;2022-10-17T04:22:32;4.68;;;2.03;;
37971;SDS011;23794;48.234;8.344;2022-10-17T04:24:59;6.20;;;2.33;;
37971;SDS011;23794;48.234;8.344;2022-10-17T04:27:32;7.07;;;2.40;;
37971;SDS011;23794;48.234;8.344;2022-10-17T04:30:00;4.88;;;2.10;;
37971;SDS011;23794;48.234;8.344;2022-10-17T04:32:29;7.50;;;2.10;;
37971;SDS011;23794;48.234;8.344;2022-10-17T04:35:04;7.88;;;2.30;;
37971;SDS011;23794;48.234;8.344;2022-10-17T04:37:32;5.43;;;2.28;;
37971;SDS011;23794;48.234;8.344;2022-10-17T04:40:04;11.27;;;2.50;;
37971;SDS011;23794;48.234;8.344;2022-10-17T04:42:34;4.90;;;2.88;;
37971;SDS011;23794;48.234;8.344;2022-10-17T04:45:00;10.32;;;3.00;;
37971;SDS011;23794;48.234;8.344;2022-10-17T04:47:27;6.72;;;2.20;;
37971;SDS011;23794;48.234;8.344;2022-10-17T04:49:54;3.22;;;2.00;;
37971;SDS011;23794;48.234;8.344;2022-10-17T04:52:21;5.55;;;2.83;;
37971;SDS011;23794;48.234;8.344;2022-10-17T04:54:48;11.50;;;2.88;;
37971;SDS011;23794;48.234;8.344;2022-10-17T04:57:16;7.30;;;2.88;;
37971;SDS011;23794;48.234;8.344;2022-10-17T04:59:55;8.32;;;3.03;;
37971;SDS011;23794;48.234;8.344;2022-10-17T05:02:36;4.38;;;2.47;;
37971;SDS011;23794;48.234;8.344;2022-10-17T05:05:03;5.07;;;2.30;;
37971;SDS011;23794;48.234;8.344;2022-10-17T05:07:31;4.50;;;2.55;;
37971;SDS011;23794;48.234;8.344;2022-10-17T05:10:05;5.70;;;2.60;;
37971;SDS011;23794;48.234;8.344;2022-10-17T05:12:33;4.38;;;2.63;;
37971;SDS011;23794;48.234;8.344;2022-10-17T05:14:59;3.55;;;2.70;;
37971;SDS011;23794;48.234;8.344;2022-10-17T05:17:27;5.65;;;2.55;;
37971;SDS011;23794;48.234;8.344;2022-10-17T05:19:54;4.95;;;2.80;;
37971;SDS011;23794;48.234;8.344;2022-10-17T05:22:21;10.00;;;3.67;;
37971;SDS011;23794;48.234;8.344;2022-10-17T05:24:48;4.90;;;3.17;;
37971;SDS011;23794;48.234;8.344;2022-10-17T05:27:15;5.90;;;2.92;;
37971;SDS011;23794;48.234;8.344;2022-10-17T05:29:42;8.45;;;4.78;;
37971;SDS011;23794;48.234;8.344;2022-10-17T05:32:16;7.38;;;3.63;;
37971;SDS011;23794;48.234;8.344;2022-10-17T05:34:43;6.70;;;4.50;;
37971;SDS011;23794;48.234;8.344;2022-10-17T05:37:10;8.80;;;4.80;;
37971;SDS011;23794;48.234;8.344;2022-10-17T05:39:38;14.10;;;6.28;;
37971;SDS011;23794;48.234;8.344;2022-10-17T05:42:06;9.80;;;6.10;;
37971;SDS011;23794;48.234;8.344;2022-10-17T05:44:33;7.90;;;4.38;;
37971;SDS011;23794;48.234;8.344;2022-10-17T05:47:01;6.50;;;4.20;;
37971;SDS011;23794;48.234;8.344;2022-10-17T05:49:27;9.73;;;5.68;;
37971;SDS011;23794;48.234;8.344;2022-10-17T05:52:14;7.65;;;5.05;;
37971;SDS011;23794;48.234;8.344;2022-10-17T05:54:55;16.23;;;8.73;;
37971;SDS011;23794;48.234;8.344;2022-10-17T05:57:25;10.90;;;6.82;;
37971;SDS011;23794;48.234;8.344;2022-10-17T05:59:53;8.48;;;5.70;;
37971;SDS011;23794;48.234;8.344;2022-10-17T06:02:20;10.55;;;5.63;;
37971;SDS011;23794;48.234;8.344;2022-10-17T06:04:47;8.07;;;5.00;;
37971;SDS011;23794;48.234;8.344;2022-10-17T06:07:17;8.23;;;3.97;;
37971;SDS011;23794;48.234;8.344;2022-10-17T06:09:44;8.07;;;3.80;;
37971;SDS011;23794;48.234;8.344;2022-10-17T06:12:16;5.47;;;3.42;;
37971;SDS011;23794;48.234;8.344;2022-10-17T06:14:43;6.18;;;4.32;;
37971;SDS011;23794;48.234;8.344;2022-10-17T06:17:11;8.00;;;4.13;;
37971;SDS011;23794;48.234;8.344;2022-10-17T06:19:42;9.85;;;3.95;;
37971;SDS011;23794;48.234;8.344;2022-10-17T06:22:11;6.53;;;3.15;;
37971;SDS011;23794;48.234;8.344;2022-10-17T06:24:38;6.40;;;3.10;;
37971;SDS011;23794;48.234;8.344;2022-10-17T06:27:05;5.22;;;3.13;;
37971;SDS011;23794;48.234;8.344;2022-10-17T06:29:37;6.40;;;3.38;;
37971;SDS011;23794;48.234;8.344;2022-10-17T06:32:05;5.03;;;3.00;;
37971;SDS011;23794;48.234;8.344;2022-10-17T06:34:38;8.52;;;2.95;;
37971;SDS011;23794;48.234;8.344;2022-10-17T06:37:05;6.18;;;3.22;;
37971;SDS011;23794;48.234;8.344;2022-10-17T06:39:33;5.82;;;2.70;;
37971;SDS011;23794;48.234;8.344;2022-10-17T06:42:05;5.10;;;2.75;;
37971;SDS011;23794;48.234;8.344;2022-10-17T06:44:55;6.20;;;3.42;;
37971;SDS011;23794;48.234;8.344;2022-10-17T06:47:50;6.70;;;3.15;;
37971;SDS011;23794;48.234;8.344;2022-10-17T06:50:37;5.22;;;2.90;;
37971;SDS011;23794;48.234;8.344;2022-10-17T06:53:10;3.80;;;2.75;;
37971;SDS011;23794;48.234;8.344;2022-10-17T06:55:55;5.32;;;3.10;;
37971;SDS011;23794;48.234;8.344;2022-10-17T06:59:04;4.00;;;2.50;;
37971;SDS011;23794;48.234;8.344;2022-10-17T07:01:36;4.03;;;2.50;;
37971;SDS011;23794;48.234;8.344;2022-10-17T07:04:04;3.47;;;2.20;;
37971;SDS011;23794;48.234;8.344;2022-10-17T07:06:32;4.97;;;2.72;;
37971;SDS011;23794;48.234;8.344;2022-10-17T07:09:06;5.82;;;2.30;;
37971;SDS011;23794;48.234;8.344;2022-10-17T07:11:35;2.63;;;2.20;;
37971;SDS011;23794;48.234;8.344;2022-10-17T07:14:01;7.85;;;2.42;;
37971;SDS011;23794;48.234;8.344;2022-10-17T07:16:28;4.35;;;1.90;;
37971;SDS011;23794;48.234;8.344;2022-10-17T07:19:14;3.42;;;1.90;;
37971;SDS011;23794;48.234;8.344;2022-10-17T07:21:41;5.80;;;2.03;;
37971;SDS011;23794;48.234;8.344;2022-10-17T07:24:09;5.05;;;1.92;;
37971;SDS011;23794;48.234;8.344;2022-10-17T07:26:39;5.85;;;1.92;;
37971;SDS011;23794;48.234;8.344;2022-10-17T07:29:06;6.75;;;2.22;;
37971;SDS011;23794;48.234;8.344;2022-10-17T07:31:37;2.78;;;2.05;;
37971;SDS011;23794;48.234;8.344;2022-10-17T07:34:04;4.57;;;1.83;;
37971;SDS011;23794;48.234;8.344;2022-10-17T07:36:31;3.67;;;1.60;;
37971;SDS011;23794;48.234;8.344;2022-10-17T07:39:00;4.97;;;1.55;;
37971;SDS011;23794;48.234;8.344;2022-10-17T07:41:29;3.10;;;2.20;;
37971;SDS011;23794;48.234;8.344;2022-10-17T07:43:56;4.35;;;1.70;;
37971;SDS011;23794;48.234;8.344;2022-10-17T07:46:29;4.25;;;2.20;;
37971;SDS011;23794;48.234;8.344;2022-10-17T07:48:56;2.97;;;2.08;;
37971;SDS011;23794;48.234;8.344;2022-10-17T07:51:22;4.15;;;1.85;;
37971;SDS011;23794;48.234;8.344;2022-10-17T07:53:49;2.30;;;1.40;;
37971;SDS011;23794;48.234;8.344;2022-10-17T07:56:16;3.00;;;1.70;;
37971;SDS011;23794;48.234;8.344;2022-10-17T07:58:43;3.80;;;1.60;;
37971;SDS011;23794;48.234;8.344;2022-10-17T08:01:10;7.53;;;2.30;;
37971;SDS011;23794;48.234;8.344;2022-10-17T08:03:42;3.00;;;1.85;;
37971;SDS011;23794;48.234;8.344;2022-10-17T08:06:10;17.30;;;4.50;;
37971;SDS011;23794;48.234;8.344;2022-10-17T08:08:37;4.45;;;1.60;;
37971;SDS011;23794;48.234;8.344;2022-10-17T08:11:05;6.90;;;2.00;;
37971;SDS011;23794;48.234;8.344;2022-10-17T08:13:34;2.83;;;1.73;;
37971;SDS011;23794;48.234;8.344;2022-10-17T08:16:01;4.28;;;2.10;;
37971;SDS011;23794;48.234;8.344;2022-10-17T08:18:33;2.95;;;1.55;;
37971;SDS011;23794;48.234;8.344;2022-10-17T08:21:01;4.07;;;1.40;;
37971;SDS011;23794;48.234;8.344;2022-10-17T08:23:31;3.50;;;1.42;;
37971;SDS011;23794;48.234;8.344;2022-10-17T08:25:58;5.05;;;1.92;;
37971;SDS011;23794;48.234;8.344;2022-10-17T08:28:26;3.83;;;1.60;;
37971;SDS011;23794;48.234;8.344;2022-10-17T08:31:00;3.28;;;1.83;;
37971;SDS011;23794;48.234;8.344;2022-10-17T08:33:34;3.47;;;1.40;;
37971;SDS011;23794;48.234;8.344;2022-10-17T08:36:02;7.15;;;1.42;;
37971;SDS011;23794;48.234;8.344;2022-10-17T08:38:30;3.17;;;1.77;;
37971;SDS011;23794;48.234;8.344;2022-10-17T08:41:12;3.57;;;1.63;;
37971;SDS011;23794;48.234;8.344;2022-10-17T08:44:01;2.45;;;1.30;;
37971;SDS011;23794;48.234;8.344;2022-10-17T08:46:48;2.83;;;1.10;;
37971;SDS011;23794;48.234;8.344;2022-10-17T08:49:24;1.95;;;1.30;;
37971;SDS011;23794;48.234;8.344;2022-10-17T08:52:05;2.45;;;1.50;;
37971;SDS011;23794;48.234;8.344;2022-10-17T08:54:53;3.58;;;1.67;;
37971;SDS011;23794;48.234;8.344;2022-10-17T08:57:20;2.10;;;1.38;;
37971;SDS011;23794;48.234;8.344;2022-10-17T08:59:50;2.47;;;1.30;;
37971;SDS011;23794;48.234;8.344;2022-10-17T09:05:29;5.22;;;1.63;;
37971;SDS011;23794;48.234;8.344;2022-10-17T09:08:28;4.13;;;1.75;;
37971;SDS011;23794;48.234;8.344;2022-10-17T09:11:09;5.40;;;1.83;;
37971;SDS011;23794;48.234;8.344;2022-10-17T09:14:07;5.47;;;1.70;;
37971;SDS011;23794;48.234;8.344;2022-10-17T09:16:55;4.65;;;1.45;;
37971;SDS011;23794;48.234;8.344;2022-10-17T09:19:36;13.73;;;1.73;;
37971;SDS011;23794;48.234;8.344;2022-10-17T09:22:15;4.55;;;1.35;;
37971;SDS011;23794;48.234;8.344;2022-10-17T09:24:46;4.60;;;1.98;;
37971;SDS011;23794;48.234;8.344;2022-10-17T09:27:46;3.13;;;1.40;;
37971;SDS011;23794;48.234;8.344;2022-10-17T09:30:34;2.95;;;0.90;;
37971;SDS011;23794;48.234;8.344;2022-10-17T09:33:12;4.93;;;1.77;;
37971;SDS011;23794;48.234;8.344;2022-10-17T09:36:01;3.42;;;1.60;;
37971;SDS011;23794;48.234;8.344;2022-10-17T09:38:43;4.82;;;1.42;;
37971;SDS011;23794;48.234;8.344;2022-10-17T09:41:17;2.92;;;1.20;;
37971;SDS011;23794;48.234;8.344;2022-10-17T09:46:42;3.25;;;1.55;;
37971;SDS011;23794;48.234;8.344;2022-10-17T09:49:33;3.17;;;1.70;;
37971;SDS011;23794;48.234;8.344;2022-10-17T09:52:03;4.30;;;1.30;;
37971;SDS011;23794;48.234;8.344;2022-10-17T09:54:38;6.05;;;1.92;;
37971;SDS011;23794;48.234;8.344;2022-10-17T09:57:09;4.53;;;0.90;;
37971;SDS011;23794;48.234;8.344;2022-10-17T09:59:38;6.03;;;1.33;;
37971;SDS011;23794;48.234;8.344;2022-10-17T10:07:34;3.30;;;1.20;;
37971;SDS011;23794;48.234;8.344;2022-10-17T10:10:03;4.75;;;1.55;;
37971;SDS011;23794;48.234;8.344;2022-10-17T10:12:37;5.53;;;1.23;;
37971;SDS011;23794;48.234;8.344;2022-10-17T10:15:30;2.97;;;1.00;;
37971;SDS011;23794;48.234;8.344;2022-10-17T10:17:59;3.13;;;0.80;;
37971;SDS011;23794;48.234;8.344;2022-10-17T10:20:28;2.83;;;0.93;;
37971;SDS011;23794;48.234;8.344;2022-10-17T10:23:17;4.45;;;1.45;;
37971;SDS011;23794;48.234;8.344;2022-10-17T10:25:54;3.45;;;1.10;;
37971;SDS011;23794;48.234;8.344;2022-10-17T10:28:24;5.68;;;1.00;;
37971;SDS011;23794;48.234;8.344;2022-10-17T10:30:54;3.10;;;1.02;;
37971;SDS011;23794;48.234;8.344;2022-10-17T10:33:24;1.90;;;0.77;;
37971;SDS011;23794;48.234;8.344;2022-10-17T10:35:57;1.30;;;0.80;;
37971;SDS011;23794;48.234;8.344;2022-10-17T10:38:31;5.78;;;1.30;;
37971;SDS011;23794;48.234;8.344;2022-10-17T10:41:06;3.33;;;1.10;;
37971;SDS011;23794;48.234;8.344;2022-10-17T10:43:41;4.00;;;1.80;;
37971;SDS011;23794;48.234;8.344;2022-10-17T10:46:21;3.45;;;1.45;;
37971;SDS011;23794;48.234;8.344;2022-10-17T10:48:53;3.28;;;1.27;;
37971;SDS011;23794;48.234;8.344;2022-10-17T10:51:33;2.22;;;0.85;;
37971;SDS011;23794;48.234;8.344;2022-10-17T10:56:37;4.05;;;1.08;;
37971;SDS011;23794;48.234;8.344;2022-10-17T10:59:10;3.17;;;0.90;;
37971;SDS011;23794;48.234;8.344;2022-10-17T11:02:10;4.90;;;0.90;;
37971;SDS011;23794;48.234;8.344;2022-10-17T11:04:54;4.55;;;1.08;;
37971;SDS011;23794;48.234;8.344;2022-10-17T11:07:44;3.25;;;1.00;;
37971;SDS011;23794;48.234;8.344;2022-10-17T11:10:21;8.38;;;1.48;;
37971;SDS011;23794;48.234;8.344;2022-10-17T11:18:02;3.22;;;1.35;;
37971;SDS011;23794;48.234;8.344;2022-10-17T11:23:14;2.20;;;1.20;;
37971;SDS011;23794;48.234;8.344;2022-10-17T11:25:47;3.63;;;1.05;;
37971;SDS011;23794;48.234;8.344;2022-10-17T11:28:17;6.67;;;1.27;;
37971;SDS011;23794;48.234;8.344;2022-10-17T11:31:08;4.93;;;1.20;;
37971;SDS011;23794;48.234;8.344;2022-10-17T11:33:55;2.88;;;1.13;;
37971;SDS011;23794;48.234;8.344;2022-10-17T11:36:37;3.03;;;0.88;;
37971;SDS011;23794;48.234;8.344;2022-10-17T11:39:11;2.47;;;1.08;;
37971;SDS011;23794;48.234;8.344;2022-10-17T11:41:45;1.83;;;0.90;;
37971;SDS011;23794;48.234;8.344;2022-10-17T11:48:05;2.45;;;0.77;;
37971;SDS011;23794;48.234;8.344;2022-10-17T11:50:33;2.55;;;1.02;;
37971;SDS011;23794;48.234;8.344;2022-10-17T11:53:27;3.92;;;0.80;;
37971;SDS011;23794;48.234;8.344;2022-10-17T11:55:59;1.98;;;0.70;;
37971;SDS011;23794;48.234;8.344;2022-10-17T12:09:15;2.38;;;1.27;;
37971;SDS011;23794;48.234;8.344;2022-10-17T12:22:46;1.60;;;0.70;;
37971;SDS011;23794;48.234;8.344;2022-10-17T12:25:16;1.40;;;0.40;;
37971;SDS011;23794;48.234;8.344;2022-10-17T12:27:48;3.25;;;1.23;;
37971;SDS011;23794;48.234;8.344;2022-10-17T12:30:17;2.42;;;0.70;;
37971;SDS011;23794;48.234;8.344;2022-10-17T12:32:55;1.77;;;0.73;;
37971;SDS011;23794;48.234;8.344;2022-10-17T12:35:33;2.22;;;0.65;;
37971;SDS011;23794;48.234;8.344;2022-10-17T12:45:45;2.78;;;0.88;;
37971;SDS011;23794;48.234;8.344;2022-10-17T12:56:33;3.47;;;0.90;;
37971;SDS011;23794;48.234;8.344;2022-10-17T12:59:05;2.40;;;0.95;;
37971;SDS011;23794;48.234;8.344;2022-10-17T13:01:36;3.92;;;0.90;;
37971;SDS011;23794;48.234;8.344;2022-10-17T13:04:05;1.40;;;0.80;;
37971;SDS011;23794;48.234;8.344;2022-10-17T13:06:37;3.05;;;1.23;;
37971;SDS011;23794;48.234;8.344;2022-10-17T13:09:16;2.72;;;1.00;;
37971;SDS011;23794;48.234;8.344;2022-10-17T13:11:55;3.08;;;1.20;;
37971;SDS011;23794;48.234;8.344;2022-10-17T13:14:25;3.90;;;0.88;;
37971;SDS011;23794;48.234;8.344;2022-10-17T13:16:54;4.32;;;0.93;;
37971;SDS011;23794;48.234;8.344;2022-10-17T13:19:24;2.03;;;0.90;;
37971;SDS011;23794;48.234;8.344;2022-10-17T13:21:56;2.20;;;1.10;;
37971;SDS011;23794;48.234;8.344;2022-10-17T13:24:33;1.52;;;1.08;;
37971;SDS011;23794;48.234;8.344;2022-10-17T13:27:05;1.35;;;0.90;;
37971;SDS011;23794;48.234;8.344;2022-10-17T13:29:46;2.17;;;1.00;;
37971;SDS011;23794;48.234;8.344;2022-10-17T13:32:13;1.33;;;0.70;;
37971;SDS011;23794;48.234;8.344;2022-10-17T13:34:40;4.68;;;0.85;;
37971;SDS011;23794;48.234;8.344;2022-10-17T13:37:07;3.92;;;1.10;;
37971;SDS011;23794;48.234;8.344;2022-10-17T13:39:39;3.60;;;1.30;;
37971;SDS011;23794;48.234;8.344;2022-10-17T13:42:25;3.53;;;1.13;;
37971;SDS011;23794;48.234;8.344;2022-10-17T13:44:56;5.65;;;2.22;;
37971;SDS011;23794;48.234;8.344;2022-10-17T13:47:28;5.05;;;1.25;;
37971;SDS011;23794;48.234;8.344;2022-10-17T13:49:59;2.88;;;1.00;;
37971;SDS011;23794;48.234;8.344;2022-10-17T13:52:27;4.35;;;1.27;;
37971;SDS011;23794;48.234;8.344;2022-10-17T13:55:05;2.78;;;1.08;;
37971;SDS011;23794;48.234;8.344;2022-10-17T13:57:33;2.17;;;0.98;;
37971;SDS011;23794;48.234;8.344;2022-10-17T14:00:05;3.28;;;1.30;;
37971;SDS011;23794;48.234;8.344;2022-10-17T14:02:41;3.00;;;1.10;;
37971;SDS011;23794;48.234;8.344;2022-10-17T14:05:15;4.45;;;0.98;;
37971;SDS011;23794;48.234;8.344;2022-10-17T14:10:38;2.78;;;1.38;;
37971;SDS011;23794;48.234;8.344;2022-10-17T14:13:06;4.38;;;0.93;;
37971;SDS011;23794;48.234;8.344;2022-10-17T14:15:44;2.38;;;1.00;;
37971;SDS011;23794;48.234;8.344;2022-10-17T14:18:22;6.60;;;1.30;;
37971;SDS011;23794;48.234;8.344;2022-10-17T14:21:00;2.95;;;0.95;;
37971;SDS011;23794;48.234;8.344;2022-10-17T14:23:48;3.38;;;1.45;;
37971;SDS011;23794;48.234;8.344;2022-10-17T14:26:19;3.22;;;1.02;;
37971;SDS011;23794;48.234;8.344;2022-10-17T14:28:49;1.95;;;0.90;;
37971;SDS011;23794;48.234;8.344;2022-10-17T14:31:29;2.70;;;0.95;;
37971;SDS011;23794;48.234;8.344;2022-10-17T14:34:02;1.80;;;1.08;;
37971;SDS011;23794;48.234;8.344;2022-10-17T14:36:32;3.65;;;1.10;;
37971;SDS011;23794;48.234;8.344;2022-10-17T14:39:15;2.13;;;1.00;;
37971;SDS011;23794;48.234;8.344;2022-10-17T14:41:45;6.20;;;1.55;;
37971;SDS011;23794;48.234;8.344;2022-10-17T14:44:31;3.10;;;1.30;;
37971;SDS011;23794;48.234;8.344;2022-10-17T14:47:01;2.60;;;1.20;;
37971;SDS011;23794;48.234;8.344;2022-10-17T14:49:50;3.85;;;1.10;;
37971;SDS011;23794;48.234;8.344;2022-10-17T14:55:00;5.38;;;1.63;;
37971;SDS011;23794;48.234;8.344;2022-10-17T14:57:45;5.00;;;1.13;;
37971;SDS011;23794;48.234;8.344;2022-10-17T15:00:13;3.28;;;1.65;;
37971;SDS011;23794;48.234;8.344;2022-10-17T15:02:40;4.50;;;1.42;;
37971;SDS011;23794;48.234;8.344;2022-10-17T15:05:07;4.13;;;0.93;;
37971;SDS011;23794;48.234;8.344;2022-10-17T15:10:05;4.38;;;1.58;;
37971;SDS011;23794;48.234;8.344;2022-10-17T15:12:48;2.65;;;1.17;;
37971;SDS011;23794;48.234;8.344;2022-10-17T15:17:56;6.45;;;1.27;;
37971;SDS011;23794;48.234;8.344;2022-10-17T15:20:24;4.32;;;1.60;;
37971;SDS011;23794;48.234;8.344;2022-10-17T15:22:53;6.85;;;1.98;;
37971;SDS011;23794;48.234;8.344;2022-10-17T15:25:21;3.60;;;1.58;;
37971;SDS011;23794;48.234;8.344;2022-10-17T15:27:48;5.32;;;1.52;;
37971;SDS011;23794;48.234;8.344;2022-10-17T15:30:28;9.80;;;2.08;;
37971;SDS011;23794;48.234;8.344;2022-10-17T15:32:59;4.93;;;1.42;;
37971;SDS011;23794;48.234;8.344;2022-10-17T15:35:26;4.60;;;2.38;;
37971;SDS011;23794;48.234;8.344;2022-10-17T15:37:54;3.90;;;1.25;;
37971;SDS011;23794;48.234;8.344;2022-10-17T15:40:22;3.95;;;1.10;;
37971;SDS011;23794;48.234;8.344;2022-10-17T15:42:54;3.88;;;1.10;;
37971;SDS011;23794;48.234;8.344;2022-10-17T15:45:21;4.70;;;1.30;;
37971;SDS011;23794;48.234;8.344;2022-10-17T15:47:49;4.53;;;1.38;;
37971;SDS011;23794;48.234;8.344;2022-10-17T15:50:19;10.13;;;1.60;;
37971;SDS011;23794;48.234;8.344;2022-10-17T15:52:47;3.45;;;1.30;;
37971;SDS011;23794;48.234;8.344;2022-10-17T15:55:18;6.15;;;1.23;;
37971;SDS011;23794;48.234;8.344;2022-10-17T15:57:45;2.63;;;1.40;;
37971;SDS011;23794;48.234;8.344;2022-10-17T16:00:18;8.20;;;1.38;;
37971;SDS011;23794;48.234;8.344;2022-10-17T16:02:47;6.32;;;1.80;;
37971;SDS011;23794;48.234;8.344;2022-10-17T16:05:16;4.80;;;1.48;;
37971;SDS011;23794;48.234;8.344;2022-10-17T16:07:48;10.45;;;1.63;;
37971;SDS011;23794;48.234;8.344;2022-10-17T16:10:15;6.25;;;2.05;;
37971;SDS011;23794;48.234;8.344;2022-10-17T16:12:42;2.85;;;1.20;;
37971;SDS011;23794;48.234;8.344;2022-10-17T16:15:14;1.50;;;1.20;;
37971;SDS011;23794;48.234;8.344;2022-10-17T16:17:42;6.80;;;1.38;;
37971;SDS011;23794;48.234;8.344;2022-10-17T16:20:10;7.45;;;1.13;;
37971;SDS011;23794;48.234;8.344;2022-10-17T16:22:37;3.25;;;1.33;;
37971;SDS011;23794;48.234;8.344;2022-10-17T16:25:13;7.30;;;1.58;;
37971;SDS011;23794;48.234;8.344;2022-10-17T16:27:44;5.50;;;2.75;;
37971;SDS011;23794;48.234;8.344;2022-10-17T16:30:13;4.95;;;1.65;;
37971;SDS011;23794;48.234;8.344;2022-10-17T16:32:40;5.30;;;1.85;;
37971;SDS011;23794;48.234;8.344;2022-10-17T16:35:07;3.55;;;2.10;;
37971;SDS011;23794;48.234;8.344;2022-10-17T16:37:34;5.05;;;2.78;;
37971;SDS011;23794;48.234;8.344;2022-10-17T16:40:02;5.38;;;1.52;;
37971;SDS011;23794;48.234;8.344;2022-10-17T16:42:29;5.47;;;1.90;;
37971;SDS011;23794;48.234;8.344;2022-10-17T16:44:56;3.95;;;1.65;;
37971;SDS011;23794;48.234;8.344;2022-10-17T16:47:23;3.17;;;1.95;;
37971;SDS011;23794;48.234;8.344;2022-10-17T16:49:50;14.82;;;2.60;;
37971;SDS011;23794;48.234;8.344;2022-10-17T16:52:17;5.28;;;1.52;;
37971;SDS011;23794;48.234;8.344;2022-10-17T16:54:43;6.45;;;1.92;;
37971;SDS011;23794;48.234;8.344;2022-10-17T16:57:10;3.05;;;1.40;;
37971;SDS011;23794;48.234;8.344;2022-10-17T16:59:37;4.25;;;1.45;;
37971;SDS011;23794;48.234;8.344;2022-10-17T17:02:04;5.72;;;1.40;;
37971;SDS011;23794;48.234;8.344;2022-10-17T17:04:31;5.45;;;1.70;;
37971;SDS011;23794;48.234;8.344;2022-10-17T17:06:58;4.15;;;1.70;;
37971;SDS011;23794;48.234;8.344;2022-10-17T17:09:24;4.20;;;1.60;;